sensor_id;sensor_type;location;lat;lon;timestamp;P1;durP1;ratioP1;P2;durP2;ratioP2
63350;SDS011;64988;51.058;17.040;2023-03-01T00:02:04;122.32;;;42.75;;
63350;SDS011;64988;51.058;17.040;2023-03-01T00:07:32;119.10;;;46.38;;
63350;SDS011;64988;51.058;17.040;2023-03-01T00:12:59;113.72;;;46.08;;
63350;SDS011;64988;51.058;17.040;2023-03-01T00:18:27;110.60;;;44.38;;
63350;SDS011;64988;51.058;17.040;2023-03-01T00:23:54;107.40;;;43.13;;
63350;SDS011;64988;51.058;17.040;2023-03-01T00:29:23;120.47;;;45.33;;
63350;SDS011;64988;51.058;17.040;2023-03-01T00:34:51;115.65;;;45.35;;
63350;SDS011;64988;51.058;17.040;2023-03-01T00:40:32;124.45;;;49.00;;
63350;SDS011;64988;51.058;17.040;2023-03-01T00:46:02;111.28;;;41.85;;
63350;SDS011;64988;51.058;17.040;2023-03-01T00:51:31;115.55;;;44.55;;
63350;SDS011;64988;51.058;17.040;2023-03-01T00:56:58;116.00;;;44.50;;
63350;SDS011;64988;51.058;17.040;2023-03-01T01:02:25;124.18;;;46.45;;
63350;SDS011;64988;51.058;17.040;2023-03-01T01:07:52;110.18;;;40.97;;
63350;SDS011;64988;51.058;17.040;2023-03-01T01:13:19;118.28;;;44.80;;
63350;SDS011;64988;51.058;17.040;2023-03-01T01:18:47;118.80;;;44.35;;
63350;SDS011;64988;51.058;17.040;2023-03-01T01:24:15;134.82;;;47.78;;
63350;SDS011;64988;51.058;17.040;2023-03-01T01:29:44;135.05;;;48.65;;
63350;SDS011;64988;51.058;17.040;2023-03-01T01:35:12;144.07;;;52.38;;
63350;SDS011;64988;51.058;17.040;2023-03-01T01:40:47;130.50;;;51.13;;
63350;SDS011;64988;51.058;17.040;2023-03-01T01:51:47;133.07;;;49.38;;
63350;SDS011;64988;51.058;17.040;2023-03-01T01:57:26;127.38;;;49.50;;
63350;SDS011;64988;51.058;17.040;2023-03-01T02:03:01;126.40;;;50.42;;
63350;SDS011;64988;51.058;17.040;2023-03-01T02:08:35;144.82;;;53.00;;
63350;SDS011;64988;51.058;17.040;2023-03-01T02:14:05;141.27;;;49.60;;
63350;SDS011;64988;51.058;17.040;2023-03-01T02:19:51;133.88;;;52.35;;
63350;SDS011;64988;51.058;17.040;2023-03-01T02:31:24;139.65;;;51.45;;
63350;SDS011;64988;51.058;17.040;2023-03-01T02:37:12;158.07;;;57.20;;
63350;SDS011;64988;51.058;17.040;2023-03-01T02:42:51;125.95;;;47.92;;
63350;SDS011;64988;51.058;17.040;2023-03-01T02:48:22;137.88;;;52.25;;
63350;SDS011;64988;51.058;17.040;2023-03-01T02:54:03;130.13;;;51.40;;
63350;SDS011;64988;51.058;17.040;2023-03-01T02:59:46;126.32;;;50.65;;
63350;SDS011;64988;51.058;17.040;2023-03-01T03:05:17;140.80;;;56.55;;
63350;SDS011;64988;51.058;17.040;2023-03-01T03:10:50;142.25;;;56.03;;
63350;SDS011;64988;51.058;17.040;2023-03-01T03:16:18;164.68;;;65.18;;
63350;SDS011;64988;51.058;17.040;2023-03-01T03:21:46;154.30;;;64.63;;
63350;SDS011;64988;51.058;17.040;2023-03-01T03:27:13;166.65;;;71.53;;
63350;SDS011;64988;51.058;17.040;2023-03-01T03:32:41;178.80;;;76.50;;
63350;SDS011;64988;51.058;17.040;2023-03-01T03:38:19;171.38;;;69.47;;
63350;SDS011;64988;51.058;17.040;2023-03-01T03:43:48;148.68;;;60.42;;
63350;SDS011;64988;51.058;17.040;2023-03-01T03:49:16;150.05;;;61.13;;
63350;SDS011;64988;51.058;17.040;2023-03-01T03:54:43;157.00;;;62.35;;
63350;SDS011;64988;51.058;17.040;2023-03-01T04:00:11;152.93;;;58.50;;
63350;SDS011;64988;51.058;17.040;2023-03-01T04:05:41;143.07;;;57.85;;
63350;SDS011;64988;51.058;17.040;2023-03-01T04:11:09;142.15;;;54.25;;
63350;SDS011;64988;51.058;17.040;2023-03-01T04:16:57;128.77;;;51.30;;
63350;SDS011;64988;51.058;17.040;2023-03-01T04:22:24;130.73;;;47.35;;
63350;SDS011;64988;51.058;17.040;2023-03-01T04:27:56;123.18;;;48.38;;
63350;SDS011;64988;51.058;17.040;2023-03-01T04:33:24;129.88;;;48.45;;
63350;SDS011;64988;51.058;17.040;2023-03-01T04:38:52;124.40;;;47.78;;
63350;SDS011;64988;51.058;17.040;2023-03-01T04:44:22;151.07;;;54.53;;
63350;SDS011;64988;51.058;17.040;2023-03-01T04:49:49;152.18;;;60.10;;
63350;SDS011;64988;51.058;17.040;2023-03-01T04:55:18;137.20;;;52.05;;
63350;SDS011;64988;51.058;17.040;2023-03-01T05:00:46;133.32;;;50.85;;
63350;SDS011;64988;51.058;17.040;2023-03-01T05:06:13;117.95;;;44.60;;
63350;SDS011;64988;51.058;17.040;2023-03-01T05:11:41;116.43;;;47.88;;
63350;SDS011;64988;51.058;17.040;2023-03-01T05:17:09;125.32;;;49.85;;
63350;SDS011;64988;51.058;17.040;2023-03-01T05:22:37;119.47;;;47.50;;
63350;SDS011;64988;51.058;17.040;2023-03-01T05:28:04;132.40;;;50.33;;
63350;SDS011;64988;51.058;17.040;2023-03-01T05:33:33;129.38;;;51.17;;
63350;SDS011;64988;51.058;17.040;2023-03-01T05:39:02;123.78;;;50.58;;
63350;SDS011;64988;51.058;17.040;2023-03-01T05:44:30;132.98;;;53.28;;
63350;SDS011;64988;51.058;17.040;2023-03-01T05:49:58;129.63;;;51.80;;
63350;SDS011;64988;51.058;17.040;2023-03-01T05:55:25;123.78;;;50.13;;
63350;SDS011;64988;51.058;17.040;2023-03-01T06:00:54;126.13;;;49.72;;
63350;SDS011;64988;51.058;17.040;2023-03-01T06:06:23;128.00;;;51.20;;
63350;SDS011;64988;51.058;17.040;2023-03-01T06:11:54;126.10;;;52.33;;
63350;SDS011;64988;51.058;17.040;2023-03-01T06:17:25;112.57;;;46.35;;
63350;SDS011;64988;51.058;17.040;2023-03-01T06:22:55;124.47;;;48.28;;
63350;SDS011;64988;51.058;17.040;2023-03-01T06:28:23;107.65;;;45.92;;
63350;SDS011;64988;51.058;17.040;2023-03-01T06:33:51;100.50;;;45.40;;
63350;SDS011;64988;51.058;17.040;2023-03-01T06:39:18;102.72;;;44.63;;
63350;SDS011;64988;51.058;17.040;2023-03-01T06:44:45;103.53;;;46.00;;
63350;SDS011;64988;51.058;17.040;2023-03-01T06:50:14;103.57;;;47.72;;
63350;SDS011;64988;51.058;17.040;2023-03-01T06:55:41;98.45;;;46.58;;
63350;SDS011;64988;51.058;17.040;2023-03-01T07:01:09;96.78;;;47.78;;
63350;SDS011;64988;51.058;17.040;2023-03-01T07:06:36;93.93;;;46.17;;
63350;SDS011;64988;51.058;17.040;2023-03-01T07:12:04;97.55;;;47.70;;
63350;SDS011;64988;51.058;17.040;2023-03-01T07:17:32;101.93;;;51.90;;
63350;SDS011;64988;51.058;17.040;2023-03-01T07:23:00;99.10;;;53.03;;
63350;SDS011;64988;51.058;17.040;2023-03-01T07:28:28;104.50;;;54.80;;
63350;SDS011;64988;51.058;17.040;2023-03-01T07:33:55;105.00;;;56.67;;
63350;SDS011;64988;51.058;17.040;2023-03-01T07:39:23;102.10;;;51.47;;
63350;SDS011;64988;51.058;17.040;2023-03-01T07:44:51;78.18;;;41.67;;
63350;SDS011;64988;51.058;17.040;2023-03-01T07:50:19;88.70;;;45.55;;
63350;SDS011;64988;51.058;17.040;2023-03-01T07:55:47;91.88;;;47.97;;
63350;SDS011;64988;51.058;17.040;2023-03-01T08:01:15;86.78;;;45.13;;
63350;SDS011;64988;51.058;17.040;2023-03-01T08:06:44;94.25;;;49.33;;
63350;SDS011;64988;51.058;17.040;2023-03-01T08:12:11;87.43;;;46.80;;
63350;SDS011;64988;51.058;17.040;2023-03-01T08:17:39;77.57;;;45.30;;
63350;SDS011;64988;51.058;17.040;2023-03-01T08:23:06;80.82;;;45.15;;
63350;SDS011;64988;51.058;17.040;2023-03-01T08:28:33;83.05;;;44.58;;
63350;SDS011;64988;51.058;17.040;2023-03-01T08:34:03;77.05;;;39.95;;
63350;SDS011;64988;51.058;17.040;2023-03-01T08:39:33;73.53;;;36.92;;
63350;SDS011;64988;51.058;17.040;2023-03-01T08:45:00;44.50;;;24.40;;
63350;SDS011;64988;51.058;17.040;2023-03-01T08:50:28;40.28;;;22.33;;
63350;SDS011;64988;51.058;17.040;2023-03-01T08:55:59;38.88;;;22.83;;
63350;SDS011;64988;51.058;17.040;2023-03-01T09:01:28;63.17;;;33.42;;
63350;SDS011;64988;51.058;17.040;2023-03-01T09:06:55;70.18;;;33.08;;
63350;SDS011;64988;51.058;17.040;2023-03-01T09:12:24;41.83;;;24.92;;
63350;SDS011;64988;51.058;17.040;2023-03-01T09:17:51;40.88;;;21.80;;
63350;SDS011;64988;51.058;17.040;2023-03-01T09:23:19;36.40;;;21.67;;
63350;SDS011;64988;51.058;17.040;2023-03-01T09:28:46;48.13;;;26.05;;
63350;SDS011;64988;51.058;17.040;2023-03-01T09:34:16;38.58;;;22.02;;
63350;SDS011;64988;51.058;17.040;2023-03-01T09:39:49;46.88;;;26.40;;
63350;SDS011;64988;51.058;17.040;2023-03-01T09:45:50;49.38;;;27.30;;
63350;SDS011;64988;51.058;17.040;2023-03-01T09:51:13;54.10;;;27.77;;
63350;SDS011;64988;51.058;17.040;2023-03-01T09:56:47;50.00;;;26.65;;
63350;SDS011;64988;51.058;17.040;2023-03-01T10:14:09;49.10;;;25.40;;
63350;SDS011;64988;51.058;17.040;2023-03-01T10:19:47;48.40;;;27.48;;
63350;SDS011;64988;51.058;17.040;2023-03-01T10:25:15;51.78;;;26.55;;
63350;SDS011;64988;51.058;17.040;2023-03-01T10:30:44;51.88;;;26.83;;
63350;SDS011;64988;51.058;17.040;2023-03-01T10:36:12;52.03;;;26.63;;
63350;SDS011;64988;51.058;17.040;2023-03-01T10:41:45;52.13;;;26.88;;
63350;SDS011;64988;51.058;17.040;2023-03-01T10:47:22;58.33;;;28.55;;
63350;SDS011;64988;51.058;17.040;2023-03-01T10:52:55;45.33;;;23.33;;
63350;SDS011;64988;51.058;17.040;2023-03-01T10:58:28;44.70;;;22.33;;
63350;SDS011;64988;51.058;17.040;2023-03-01T11:09:34;49.17;;;23.42;;
63350;SDS011;64988;51.058;17.040;2023-03-01T11:15:08;38.25;;;19.92;;
63350;SDS011;64988;51.058;17.040;2023-03-01T11:20:51;34.47;;;17.25;;
63350;SDS011;64988;51.058;17.040;2023-03-01T11:26:22;48.67;;;23.95;;
63350;SDS011;64988;51.058;17.040;2023-03-01T11:31:50;44.63;;;22.80;;
63350;SDS011;64988;51.058;17.040;2023-03-01T11:37:28;51.72;;;21.88;;
63350;SDS011;64988;51.058;17.040;2023-03-01T12:00:14;39.75;;;18.92;;
63350;SDS011;64988;51.058;17.040;2023-03-01T12:12:11;34.13;;;17.77;;
63350;SDS011;64988;51.058;17.040;2023-03-01T12:52:37;34.22;;;16.92;;
63350;SDS011;64988;51.058;17.040;2023-03-01T12:58:29;35.03;;;14.32;;
63350;SDS011;64988;51.058;17.040;2023-03-01T13:04:17;31.25;;;14.65;;
63350;SDS011;64988;51.058;17.040;2023-03-01T13:15:50;31.60;;;13.65;;
63350;SDS011;64988;51.058;17.040;2023-03-01T13:21:29;15.90;;;7.25;;
63350;SDS011;64988;51.058;17.040;2023-03-01T13:32:34;22.63;;;10.23;;
63350;SDS011;64988;51.058;17.040;2023-03-01T13:44:32;24.60;;;12.70;;
63350;SDS011;64988;51.058;17.040;2023-03-01T13:50:03;25.38;;;12.13;;
63350;SDS011;64988;51.058;17.040;2023-03-01T13:55:41;25.17;;;11.07;;
63350;SDS011;64988;51.058;17.040;2023-03-01T14:01:25;20.55;;;9.73;;
63350;SDS011;64988;51.058;17.040;2023-03-01T14:12:51;18.67;;;9.13;;
63350;SDS011;64988;51.058;17.040;2023-03-01T14:18:51;21.33;;;10.90;;
63350;SDS011;64988;51.058;17.040;2023-03-01T14:24:32;19.98;;;10.68;;
63350;SDS011;64988;51.058;17.040;2023-03-01T14:30:13;17.40;;;8.30;;
63350;SDS011;64988;51.058;17.040;2023-03-01T14:35:51;18.13;;;8.35;;
63350;SDS011;64988;51.058;17.040;2023-03-01T14:41:25;20.88;;;10.20;;
63350;SDS011;64988;51.058;17.040;2023-03-01T14:46:55;21.98;;;11.93;;
63350;SDS011;64988;51.058;17.040;2023-03-01T14:52:48;24.25;;;10.65;;
63350;SDS011;64988;51.058;17.040;2023-03-01T14:58:19;22.42;;;11.05;;
63350;SDS011;64988;51.058;17.040;2023-03-01T15:03:49;22.95;;;11.88;;
63350;SDS011;64988;51.058;17.040;2023-03-01T15:09:17;24.70;;;11.60;;
63350;SDS011;64988;51.058;17.040;2023-03-01T15:14:45;19.23;;;10.15;;
63350;SDS011;64988;51.058;17.040;2023-03-01T15:20:29;23.50;;;11.60;;
63350;SDS011;64988;51.058;17.040;2023-03-01T15:26:02;21.70;;;10.40;;
63350;SDS011;64988;51.058;17.040;2023-03-01T15:31:34;22.27;;;11.48;;
63350;SDS011;64988;51.058;17.040;2023-03-01T15:37:15;25.83;;;12.88;;
63350;SDS011;64988;51.058;17.040;2023-03-01T15:43:36;26.58;;;12.80;;
63350;SDS011;64988;51.058;17.040;2023-03-01T15:49:05;26.50;;;13.13;;
63350;SDS011;64988;51.058;17.040;2023-03-01T15:55:24;22.00;;;11.70;;
63350;SDS011;64988;51.058;17.040;2023-03-01T16:00:57;31.23;;;13.45;;
63350;SDS011;64988;51.058;17.040;2023-03-01T16:06:28;27.13;;;14.52;;
63350;SDS011;64988;51.058;17.040;2023-03-01T16:11:57;29.80;;;13.82;;
63350;SDS011;64988;51.058;17.040;2023-03-01T16:17:28;32.85;;;14.30;;
63350;SDS011;64988;51.058;17.040;2023-03-01T16:22:59;34.97;;;14.60;;
63350;SDS011;64988;51.058;17.040;2023-03-01T16:28:30;30.58;;;13.40;;
63350;SDS011;64988;51.058;17.040;2023-03-01T16:33:59;41.33;;;15.60;;
63350;SDS011;64988;51.058;17.040;2023-03-01T16:39:27;35.60;;;15.45;;
63350;SDS011;64988;51.058;17.040;2023-03-01T16:44:55;41.53;;;16.70;;
63350;SDS011;64988;51.058;17.040;2023-03-01T16:50:23;33.45;;;16.30;;
63350;SDS011;64988;51.058;17.040;2023-03-01T16:55:56;35.83;;;17.17;;
63350;SDS011;64988;51.058;17.040;2023-03-01T17:01:27;43.15;;;18.38;;
63350;SDS011;64988;51.058;17.040;2023-03-01T17:07:04;41.17;;;18.33;;
63350;SDS011;64988;51.058;17.040;2023-03-01T17:12:33;59.78;;;23.80;;
63350;SDS011;64988;51.058;17.040;2023-03-01T17:18:01;49.45;;;22.83;;
63350;SDS011;64988;51.058;17.040;2023-03-01T17:23:30;55.17;;;23.05;;
63350;SDS011;64988;51.058;17.040;2023-03-01T17:28:59;51.17;;;20.75;;
63350;SDS011;64988;51.058;17.040;2023-03-01T17:34:30;54.67;;;21.98;;
63350;SDS011;64988;51.058;17.040;2023-03-01T17:39:58;55.00;;;21.05;;
63350;SDS011;64988;51.058;17.040;2023-03-01T17:45:26;64.43;;;27.95;;
63350;SDS011;64988;51.058;17.040;2023-03-01T17:50:54;65.80;;;29.25;;
63350;SDS011;64988;51.058;17.040;2023-03-01T17:56:23;65.10;;;26.75;;
63350;SDS011;64988;51.058;17.040;2023-03-01T18:01:51;56.05;;;23.15;;
63350;SDS011;64988;51.058;17.040;2023-03-01T18:07:19;52.17;;;22.75;;
63350;SDS011;64988;51.058;17.040;2023-03-01T18:12:46;56.72;;;22.70;;
63350;SDS011;64988;51.058;17.040;2023-03-01T18:18:14;48.85;;;21.27;;
63350;SDS011;64988;51.058;17.040;2023-03-01T18:23:41;62.42;;;25.83;;
63350;SDS011;64988;51.058;17.040;2023-03-01T18:29:09;63.15;;;26.10;;
63350;SDS011;64988;51.058;17.040;2023-03-01T18:34:37;94.05;;;39.63;;
63350;SDS011;64988;51.058;17.040;2023-03-01T18:40:05;100.20;;;44.90;;
63350;SDS011;64988;51.058;17.040;2023-03-01T18:45:34;82.90;;;36.45;;
63350;SDS011;64988;51.058;17.040;2023-03-01T18:51:13;91.00;;;42.78;;
63350;SDS011;64988;51.058;17.040;2023-03-01T18:56:45;92.00;;;40.20;;
63350;SDS011;64988;51.058;17.040;2023-03-01T19:02:13;80.30;;;32.47;;
63350;SDS011;64988;51.058;17.040;2023-03-01T19:07:41;93.57;;;40.08;;
63350;SDS011;64988;51.058;17.040;2023-03-01T19:13:09;103.22;;;42.30;;
63350;SDS011;64988;51.058;17.040;2023-03-01T19:18:38;104.55;;;42.90;;
63350;SDS011;64988;51.058;17.040;2023-03-01T19:24:07;113.28;;;48.42;;
63350;SDS011;64988;51.058;17.040;2023-03-01T19:29:37;105.10;;;46.63;;
63350;SDS011;64988;51.058;17.040;2023-03-01T19:35:06;106.20;;;44.90;;
63350;SDS011;64988;51.058;17.040;2023-03-01T19:40:34;127.28;;;54.63;;
63350;SDS011;64988;51.058;17.040;2023-03-01T19:46:02;124.80;;;57.40;;
63350;SDS011;64988;51.058;17.040;2023-03-01T19:51:30;137.02;;;57.80;;
63350;SDS011;64988;51.058;17.040;2023-03-01T19:57:04;104.13;;;45.13;;
63350;SDS011;64988;51.058;17.040;2023-03-01T20:02:32;105.80;;;42.28;;
63350;SDS011;64988;51.058;17.040;2023-03-01T20:08:02;107.68;;;44.90;;
63350;SDS011;64988;51.058;17.040;2023-03-01T20:13:31;115.85;;;48.20;;
63350;SDS011;64988;51.058;17.040;2023-03-01T20:18:59;120.88;;;51.72;;
63350;SDS011;64988;51.058;17.040;2023-03-01T20:24:26;128.18;;;56.10;;
63350;SDS011;64988;51.058;17.040;2023-03-01T20:29:54;148.40;;;63.05;;
63350;SDS011;64988;51.058;17.040;2023-03-01T20:35:22;128.38;;;53.08;;
63350;SDS011;64988;51.058;17.040;2023-03-01T20:40:55;143.43;;;59.20;;
63350;SDS011;64988;51.058;17.040;2023-03-01T20:46:24;154.75;;;64.22;;
63350;SDS011;64988;51.058;17.040;2023-03-01T20:51:53;149.48;;;61.83;;
63350;SDS011;64988;51.058;17.040;2023-03-01T20:57:20;152.65;;;64.82;;
63350;SDS011;64988;51.058;17.040;2023-03-01T21:02:50;160.05;;;62.90;;
63350;SDS011;64988;51.058;17.040;2023-03-01T21:08:19;164.18;;;65.25;;
63350;SDS011;64988;51.058;17.040;2023-03-01T21:13:48;157.73;;;65.28;;
63350;SDS011;64988;51.058;17.040;2023-03-01T21:19:16;178.30;;;74.57;;
63350;SDS011;64988;51.058;17.040;2023-03-01T21:24:47;175.55;;;70.35;;
63350;SDS011;64988;51.058;17.040;2023-03-01T21:30:18;182.60;;;72.80;;
63350;SDS011;64988;51.058;17.040;2023-03-01T21:35:46;291.35;;;118.40;;
63350;SDS011;64988;51.058;17.040;2023-03-01T21:41:16;266.52;;;110.88;;
63350;SDS011;64988;51.058;17.040;2023-03-01T21:46:49;248.18;;;99.30;;
63350;SDS011;64988;51.058;17.040;2023-03-01T21:52:16;287.23;;;117.03;;
63350;SDS011;64988;51.058;17.040;2023-03-01T21:57:44;197.45;;;80.63;;
63350;SDS011;64988;51.058;17.040;2023-03-01T22:03:15;230.00;;;90.90;;
63350;SDS011;64988;51.058;17.040;2023-03-01T22:08:46;243.35;;;95.75;;
63350;SDS011;64988;51.058;17.040;2023-03-01T22:14:16;258.13;;;96.33;;
63350;SDS011;64988;51.058;17.040;2023-03-01T22:19:43;216.05;;;78.05;;
63350;SDS011;64988;51.058;17.040;2023-03-01T22:25:11;208.65;;;71.57;;
63350;SDS011;64988;51.058;17.040;2023-03-01T22:30:38;170.77;;;66.68;;
63350;SDS011;64988;51.058;17.040;2023-03-01T22:36:06;172.20;;;66.53;;
63350;SDS011;64988;51.058;17.040;2023-03-01T22:41:35;192.00;;;70.75;;
63350;SDS011;64988;51.058;17.040;2023-03-01T22:47:06;168.57;;;64.47;;
63350;SDS011;64988;51.058;17.040;2023-03-01T22:52:33;183.90;;;75.00;;
63350;SDS011;64988;51.058;17.040;2023-03-01T22:58:02;166.48;;;67.82;;
63350;SDS011;64988;51.058;17.040;2023-03-01T23:03:30;159.38;;;61.35;;
63350;SDS011;64988;51.058;17.040;2023-03-01T23:08:59;180.05;;;67.78;;
63350;SDS011;64988;51.058;17.040;2023-03-01T23:14:28;167.82;;;69.38;;
63350;SDS011;64988;51.058;17.040;2023-03-01T23:19:58;169.48;;;69.47;;
63350;SDS011;64988;51.058;17.040;2023-03-01T23:25:26;169.40;;;65.95;;
63350;SDS011;64988;51.058;17.040;2023-03-01T23:30:57;187.27;;;72.25;;
63350;SDS011;64988;51.058;17.040;2023-03-01T23:41:54;205.27;;;77.75;;
63350;SDS011;64988;51.058;17.040;2023-03-01T23:47:23;173.13;;;67.13;;
63350;SDS011;64988;51.058;17.040;2023-03-01T23:52:50;143.02;;;57.30;;
63350;SDS011;64988;51.058;17.040;2023-03-01T23:58:18;177.15;;;61.25;;
